sensor_id;sensor_type;location;lat;lon;timestamp;P1;durP1;ratioP1;P2;durP2;ratioP2
13805;SDS011;6974;53.606;9.872;2024-01-11T00:02:11;23.53;;;15.90;;
13805;SDS011;6974;53.606;9.872;2024-01-11T00:04:38;24.07;;;16.73;;
13805;SDS011;6974;53.606;9.872;2024-01-11T00:07:06;21.60;;;15.70;;
13805;SDS011;6974;53.606;9.872;2024-01-11T00:09:33;24.93;;;16.13;;
13805;SDS011;6974;53.606;9.872;2024-01-11T00:12:01;23.83;;;15.27;;
13805;SDS011;6974;53.606;9.872;2024-01-11T00:14:28;24.83;;;16.33;;
13805;SDS011;6974;53.606;9.872;2024-01-11T00:16:55;41.20;;;22.47;;
13805;SDS011;6974;53.606;9.872;2024-01-11T00:19:22;26.80;;;18.30;;
13805;SDS011;6974;53.606;9.872;2024-01-11T00:21:49;21.93;;;15.70;;
13805;SDS011;6974;53.606;9.872;2024-01-11T00:24:16;23.37;;;15.37;;
13805;SDS011;6974;53.606;9.872;2024-01-11T00:26:44;21.70;;;15.10;;
13805;SDS011;6974;53.606;9.872;2024-01-11T00:29:12;24.00;;;16.33;;
13805;SDS011;6974;53.606;9.872;2024-01-11T00:31:39;24.77;;;16.47;;
13805;SDS011;6974;53.606;9.872;2024-01-11T00:34:06;26.30;;;16.80;;
13805;SDS011;6974;53.606;9.872;2024-01-11T00:36:34;23.17;;;15.27;;
13805;SDS011;6974;53.606;9.872;2024-01-11T00:39:01;20.67;;;14.13;;
13805;SDS011;6974;53.606;9.872;2024-01-11T00:41:28;21.93;;;15.07;;
13805;SDS011;6974;53.606;9.872;2024-01-11T00:43:56;23.30;;;14.97;;
13805;SDS011;6974;53.606;9.872;2024-01-11T00:46:24;23.13;;;15.53;;
13805;SDS011;6974;53.606;9.872;2024-01-11T00:48:51;23.77;;;15.80;;
13805;SDS011;6974;53.606;9.872;2024-01-11T00:51:22;20.80;;;15.07;;
13805;SDS011;6974;53.606;9.872;2024-01-11T00:53:49;19.70;;;14.87;;
13805;SDS011;6974;53.606;9.872;2024-01-11T00:56:16;24.63;;;16.80;;
13805;SDS011;6974;53.606;9.872;2024-01-11T00:58:43;23.53;;;15.67;;
13805;SDS011;6974;53.606;9.872;2024-01-11T01:01:11;26.80;;;16.37;;
13805;SDS011;6974;53.606;9.872;2024-01-11T01:03:39;26.50;;;16.97;;
13805;SDS011;6974;53.606;9.872;2024-01-11T01:06:06;23.57;;;15.97;;
13805;SDS011;6974;53.606;9.872;2024-01-11T01:08:33;24.63;;;15.87;;
13805;SDS011;6974;53.606;9.872;2024-01-11T01:11:00;24.13;;;16.47;;
13805;SDS011;6974;53.606;9.872;2024-01-11T01:13:26;22.47;;;15.93;;
13805;SDS011;6974;53.606;9.872;2024-01-11T01:15:53;25.17;;;16.33;;
13805;SDS011;6974;53.606;9.872;2024-01-11T01:18:21;24.23;;;16.67;;
13805;SDS011;6974;53.606;9.872;2024-01-11T01:20:49;23.53;;;16.43;;
13805;SDS011;6974;53.606;9.872;2024-01-11T01:23:19;24.60;;;16.27;;
13805;SDS011;6974;53.606;9.872;2024-01-11T01:25:46;24.70;;;16.33;;
13805;SDS011;6974;53.606;9.872;2024-01-11T01:28:13;24.80;;;16.23;;
13805;SDS011;6974;53.606;9.872;2024-01-11T01:30:40;25.33;;;17.00;;
13805;SDS011;6974;53.606;9.872;2024-01-11T01:33:07;26.23;;;16.43;;
13805;SDS011;6974;53.606;9.872;2024-01-11T01:35:34;24.83;;;17.10;;
13805;SDS011;6974;53.606;9.872;2024-01-11T01:38:03;28.37;;;18.00;;
13805;SDS011;6974;53.606;9.872;2024-01-11T01:40:30;26.33;;;16.27;;
13805;SDS011;6974;53.606;9.872;2024-01-11T01:42:58;30.83;;;18.47;;
13805;SDS011;6974;53.606;9.872;2024-01-11T01:45:26;29.63;;;19.30;;
13805;SDS011;6974;53.606;9.872;2024-01-11T01:47:55;27.07;;;18.20;;
13805;SDS011;6974;53.606;9.872;2024-01-11T01:50:22;31.00;;;19.37;;
13805;SDS011;6974;53.606;9.872;2024-01-11T01:52:49;30.33;;;19.47;;
13805;SDS011;6974;53.606;9.872;2024-01-11T01:55:18;29.80;;;19.27;;
13805;SDS011;6974;53.606;9.872;2024-01-11T01:57:48;29.73;;;19.77;;
13805;SDS011;6974;53.606;9.872;2024-01-11T02:00:16;28.33;;;18.43;;
13805;SDS011;6974;53.606;9.872;2024-01-11T02:02:44;28.53;;;18.63;;
13805;SDS011;6974;53.606;9.872;2024-01-11T02:05:11;25.77;;;16.93;;
13805;SDS011;6974;53.606;9.872;2024-01-11T02:07:40;26.87;;;18.33;;
13805;SDS011;6974;53.606;9.872;2024-01-11T02:10:07;27.67;;;18.27;;
13805;SDS011;6974;53.606;9.872;2024-01-11T02:12:36;32.07;;;19.63;;
13805;SDS011;6974;53.606;9.872;2024-01-11T02:15:04;30.43;;;19.33;;
13805;SDS011;6974;53.606;9.872;2024-01-11T02:17:31;34.27;;;20.47;;
13805;SDS011;6974;53.606;9.872;2024-01-11T02:19:59;33.83;;;19.93;;
13805;SDS011;6974;53.606;9.872;2024-01-11T02:22:29;35.97;;;20.40;;
13805;SDS011;6974;53.606;9.872;2024-01-11T02:24:59;35.83;;;21.90;;
13805;SDS011;6974;53.606;9.872;2024-01-11T02:27:27;34.83;;;22.10;;
13805;SDS011;6974;53.606;9.872;2024-01-11T02:29:54;37.50;;;21.87;;
13805;SDS011;6974;53.606;9.872;2024-01-11T02:32:21;36.27;;;21.40;;
13805;SDS011;6974;53.606;9.872;2024-01-11T02:34:48;36.47;;;22.37;;
13805;SDS011;6974;53.606;9.872;2024-01-11T02:37:16;37.07;;;22.17;;
13805;SDS011;6974;53.606;9.872;2024-01-11T02:39:43;35.97;;;20.97;;
13805;SDS011;6974;53.606;9.872;2024-01-11T02:42:11;34.03;;;20.13;;
13805;SDS011;6974;53.606;9.872;2024-01-11T02:44:39;38.20;;;22.07;;
13805;SDS011;6974;53.606;9.872;2024-01-11T02:47:07;40.53;;;23.17;;
13805;SDS011;6974;53.606;9.872;2024-01-11T02:49:33;39.20;;;23.33;;
13805;SDS011;6974;53.606;9.872;2024-01-11T02:52:02;35.63;;;21.70;;
13805;SDS011;6974;53.606;9.872;2024-01-11T02:54:29;42.47;;;23.77;;
13805;SDS011;6974;53.606;9.872;2024-01-11T02:56:56;39.97;;;22.63;;
13805;SDS011;6974;53.606;9.872;2024-01-11T02:59:25;45.73;;;26.70;;
13805;SDS011;6974;53.606;9.872;2024-01-11T03:01:52;41.03;;;24.30;;
13805;SDS011;6974;53.606;9.872;2024-01-11T03:04:19;44.93;;;25.20;;
13805;SDS011;6974;53.606;9.872;2024-01-11T03:06:46;40.63;;;24.87;;
13805;SDS011;6974;53.606;9.872;2024-01-11T03:09:13;41.70;;;25.03;;
13805;SDS011;6974;53.606;9.872;2024-01-11T03:11:40;40.90;;;23.50;;
13805;SDS011;6974;53.606;9.872;2024-01-11T03:14:07;41.73;;;25.03;;
13805;SDS011;6974;53.606;9.872;2024-01-11T03:16:36;34.83;;;21.63;;
13805;SDS011;6974;53.606;9.872;2024-01-11T03:19:05;37.53;;;21.50;;
13805;SDS011;6974;53.606;9.872;2024-01-11T03:21:32;40.70;;;23.70;;
13805;SDS011;6974;53.606;9.872;2024-01-11T03:23:59;37.83;;;22.27;;
13805;SDS011;6974;53.606;9.872;2024-01-11T03:26:26;39.40;;;22.73;;
13805;SDS011;6974;53.606;9.872;2024-01-11T03:28:53;36.97;;;22.53;;
13805;SDS011;6974;53.606;9.872;2024-01-11T03:31:20;36.87;;;21.77;;
13805;SDS011;6974;53.606;9.872;2024-01-11T03:33:48;35.03;;;20.70;;
13805;SDS011;6974;53.606;9.872;2024-01-11T03:36:15;38.80;;;22.00;;
13805;SDS011;6974;53.606;9.872;2024-01-11T03:38:42;35.93;;;21.73;;
13805;SDS011;6974;53.606;9.872;2024-01-11T03:41:10;34.07;;;20.47;;
13805;SDS011;6974;53.606;9.872;2024-01-11T03:43:37;40.90;;;23.30;;
13805;SDS011;6974;53.606;9.872;2024-01-11T03:46:04;40.17;;;22.90;;
13805;SDS011;6974;53.606;9.872;2024-01-11T03:48:31;39.90;;;22.97;;
13805;SDS011;6974;53.606;9.872;2024-01-11T03:51:02;40.80;;;22.67;;
13805;SDS011;6974;53.606;9.872;2024-01-11T03:53:34;43.53;;;23.90;;
13805;SDS011;6974;53.606;9.872;2024-01-11T03:56:01;39.77;;;22.50;;
13805;SDS011;6974;53.606;9.872;2024-01-11T03:58:29;45.77;;;26.27;;
13805;SDS011;6974;53.606;9.872;2024-01-11T04:00:56;47.83;;;26.50;;
13805;SDS011;6974;53.606;9.872;2024-01-11T04:03:23;53.40;;;27.53;;
13805;SDS011;6974;53.606;9.872;2024-01-11T04:05:51;52.90;;;28.83;;
13805;SDS011;6974;53.606;9.872;2024-01-11T04:08:19;52.93;;;29.10;;
13805;SDS011;6974;53.606;9.872;2024-01-11T04:10:46;63.27;;;34.00;;
13805;SDS011;6974;53.606;9.872;2024-01-11T04:13:13;60.23;;;33.37;;
13805;SDS011;6974;53.606;9.872;2024-01-11T04:15:40;67.93;;;34.60;;
13805;SDS011;6974;53.606;9.872;2024-01-11T04:18:08;66.93;;;35.03;;
13805;SDS011;6974;53.606;9.872;2024-01-11T04:20:35;66.27;;;34.33;;
13805;SDS011;6974;53.606;9.872;2024-01-11T04:23:02;63.43;;;34.67;;
13805;SDS011;6974;53.606;9.872;2024-01-11T04:25:31;68.23;;;36.00;;
13805;SDS011;6974;53.606;9.872;2024-01-11T04:27:57;66.00;;;35.50;;
13805;SDS011;6974;53.606;9.872;2024-01-11T04:30:24;66.43;;;35.23;;
13805;SDS011;6974;53.606;9.872;2024-01-11T04:32:52;66.67;;;37.17;;
13805;SDS011;6974;53.606;9.872;2024-01-11T04:35:21;62.70;;;33.97;;
13805;SDS011;6974;53.606;9.872;2024-01-11T04:37:47;65.43;;;34.93;;
13805;SDS011;6974;53.606;9.872;2024-01-11T04:40:15;65.07;;;34.30;;
13805;SDS011;6974;53.606;9.872;2024-01-11T04:42:43;65.73;;;35.07;;
13805;SDS011;6974;53.606;9.872;2024-01-11T04:45:10;72.17;;;36.87;;
13805;SDS011;6974;53.606;9.872;2024-01-11T04:47:37;65.53;;;33.47;;
13805;SDS011;6974;53.606;9.872;2024-01-11T04:50:04;62.50;;;32.27;;
13805;SDS011;6974;53.606;9.872;2024-01-11T04:52:32;57.40;;;30.40;;
13805;SDS011;6974;53.606;9.872;2024-01-11T04:54:58;53.57;;;28.93;;
13805;SDS011;6974;53.606;9.872;2024-01-11T04:57:25;43.47;;;26.10;;
13805;SDS011;6974;53.606;9.872;2024-01-11T04:59:54;46.13;;;26.30;;
13805;SDS011;6974;53.606;9.872;2024-01-11T05:02:21;39.20;;;22.43;;
13805;SDS011;6974;53.606;9.872;2024-01-11T05:04:48;39.20;;;22.73;;
13805;SDS011;6974;53.606;9.872;2024-01-11T05:07:15;38.50;;;22.57;;
13805;SDS011;6974;53.606;9.872;2024-01-11T05:09:41;36.60;;;21.40;;
13805;SDS011;6974;53.606;9.872;2024-01-11T05:12:08;34.23;;;20.00;;
13805;SDS011;6974;53.606;9.872;2024-01-11T05:14:35;32.80;;;20.17;;
13805;SDS011;6974;53.606;9.872;2024-01-11T05:17:03;26.50;;;16.90;;
13805;SDS011;6974;53.606;9.872;2024-01-11T05:19:30;29.53;;;18.20;;
13805;SDS011;6974;53.606;9.872;2024-01-11T05:21:57;26.73;;;16.80;;
13805;SDS011;6974;53.606;9.872;2024-01-11T05:24:24;25.87;;;15.97;;
13805;SDS011;6974;53.606;9.872;2024-01-11T05:26:51;24.03;;;16.03;;
13805;SDS011;6974;53.606;9.872;2024-01-11T05:29:18;25.90;;;15.90;;
13805;SDS011;6974;53.606;9.872;2024-01-11T05:31:45;25.97;;;15.37;;
13805;SDS011;6974;53.606;9.872;2024-01-11T05:34:13;22.30;;;13.87;;
13805;SDS011;6974;53.606;9.872;2024-01-11T05:36:40;21.87;;;13.53;;
13805;SDS011;6974;53.606;9.872;2024-01-11T05:39:07;22.17;;;12.97;;
13805;SDS011;6974;53.606;9.872;2024-01-11T05:41:33;19.50;;;12.93;;
13805;SDS011;6974;53.606;9.872;2024-01-11T05:44:00;23.17;;;14.17;;
13805;SDS011;6974;53.606;9.872;2024-01-11T05:46:27;23.30;;;13.23;;
13805;SDS011;6974;53.606;9.872;2024-01-11T05:48:54;20.07;;;12.40;;
13805;SDS011;6974;53.606;9.872;2024-01-11T05:51:22;24.10;;;13.43;;
13805;SDS011;6974;53.606;9.872;2024-01-11T05:53:49;20.63;;;13.17;;
13805;SDS011;6974;53.606;9.872;2024-01-11T05:56:16;23.20;;;12.73;;
13805;SDS011;6974;53.606;9.872;2024-01-11T05:58:45;24.03;;;12.10;;
13805;SDS011;6974;53.606;9.872;2024-01-11T06:01:12;24.43;;;12.87;;
13805;SDS011;6974;53.606;9.872;2024-01-11T06:03:39;23.67;;;13.23;;
13805;SDS011;6974;53.606;9.872;2024-01-11T06:06:06;23.83;;;12.87;;
13805;SDS011;6974;53.606;9.872;2024-01-11T06:08:34;25.03;;;13.33;;
13805;SDS011;6974;53.606;9.872;2024-01-11T06:11:01;28.63;;;13.60;;
13805;SDS011;6974;53.606;9.872;2024-01-11T06:13:29;26.20;;;13.70;;
13805;SDS011;6974;53.606;9.872;2024-01-11T06:15:55;25.73;;;13.50;;
13805;SDS011;6974;53.606;9.872;2024-01-11T06:18:22;28.67;;;13.80;;
13805;SDS011;6974;53.606;9.872;2024-01-11T06:20:49;25.70;;;12.83;;
13805;SDS011;6974;53.606;9.872;2024-01-11T06:23:16;26.47;;;13.73;;
13805;SDS011;6974;53.606;9.872;2024-01-11T06:25:46;24.57;;;13.10;;
13805;SDS011;6974;53.606;9.872;2024-01-11T06:28:13;22.87;;;12.83;;
13805;SDS011;6974;53.606;9.872;2024-01-11T06:30:40;23.80;;;12.43;;
13805;SDS011;6974;53.606;9.872;2024-01-11T06:33:08;21.47;;;11.47;;
13805;SDS011;6974;53.606;9.872;2024-01-11T06:35:35;21.23;;;11.73;;
13805;SDS011;6974;53.606;9.872;2024-01-11T06:38:01;22.63;;;11.97;;
13805;SDS011;6974;53.606;9.872;2024-01-11T06:40:29;24.97;;;12.43;;
13805;SDS011;6974;53.606;9.872;2024-01-11T06:42:57;22.73;;;12.17;;
13805;SDS011;6974;53.606;9.872;2024-01-11T06:45:24;21.77;;;11.00;;
13805;SDS011;6974;53.606;9.872;2024-01-11T06:47:51;22.53;;;12.23;;
13805;SDS011;6974;53.606;9.872;2024-01-11T06:50:18;23.37;;;11.93;;
13805;SDS011;6974;53.606;9.872;2024-01-11T06:52:45;24.83;;;12.50;;
13805;SDS011;6974;53.606;9.872;2024-01-11T06:55:12;24.93;;;12.07;;
13805;SDS011;6974;53.606;9.872;2024-01-11T06:57:39;29.97;;;12.50;;
13805;SDS011;6974;53.606;9.872;2024-01-11T07:00:08;24.50;;;12.27;;
13805;SDS011;6974;53.606;9.872;2024-01-11T07:02:35;24.73;;;12.30;;
13805;SDS011;6974;53.606;9.872;2024-01-11T07:05:02;23.03;;;12.50;;
13805;SDS011;6974;53.606;9.872;2024-01-11T07:07:29;24.33;;;12.33;;
13805;SDS011;6974;53.606;9.872;2024-01-11T07:09:56;24.80;;;12.57;;
13805;SDS011;6974;53.606;9.872;2024-01-11T07:12:23;26.83;;;11.87;;
13805;SDS011;6974;53.606;9.872;2024-01-11T07:14:50;23.00;;;11.80;;
13805;SDS011;6974;53.606;9.872;2024-01-11T07:17:18;27.20;;;12.73;;
13805;SDS011;6974;53.606;9.872;2024-01-11T07:19:47;26.03;;;13.07;;
13805;SDS011;6974;53.606;9.872;2024-01-11T07:22:14;25.33;;;12.43;;
13805;SDS011;6974;53.606;9.872;2024-01-11T07:24:41;29.43;;;13.20;;
13805;SDS011;6974;53.606;9.872;2024-01-11T07:27:08;24.73;;;11.57;;
13805;SDS011;6974;53.606;9.872;2024-01-11T07:29:35;22.60;;;11.60;;
13805;SDS011;6974;53.606;9.872;2024-01-11T07:32:02;29.47;;;12.67;;
13805;SDS011;6974;53.606;9.872;2024-01-11T07:34:31;21.77;;;11.00;;
13805;SDS011;6974;53.606;9.872;2024-01-11T07:36:58;22.60;;;12.23;;
13805;SDS011;6974;53.606;9.872;2024-01-11T07:39:25;24.90;;;11.63;;
13805;SDS011;6974;53.606;9.872;2024-01-11T07:41:52;25.67;;;12.63;;
13805;SDS011;6974;53.606;9.872;2024-01-11T07:44:19;31.70;;;13.10;;
13805;SDS011;6974;53.606;9.872;2024-01-11T07:46:46;28.93;;;13.87;;
13805;SDS011;6974;53.606;9.872;2024-01-11T07:49:13;26.47;;;13.00;;
13805;SDS011;6974;53.606;9.872;2024-01-11T07:51:41;25.90;;;12.80;;
13805;SDS011;6974;53.606;9.872;2024-01-11T07:54:08;23.13;;;12.13;;
13805;SDS011;6974;53.606;9.872;2024-01-11T07:56:35;25.47;;;12.93;;
13805;SDS011;6974;53.606;9.872;2024-01-11T07:59:02;26.33;;;12.40;;
13805;SDS011;6974;53.606;9.872;2024-01-11T08:01:29;27.17;;;13.17;;
13805;SDS011;6974;53.606;9.872;2024-01-11T08:03:56;24.33;;;12.70;;
13805;SDS011;6974;53.606;9.872;2024-01-11T08:06:23;24.57;;;11.63;;
13805;SDS011;6974;53.606;9.872;2024-01-11T08:08:51;25.63;;;12.70;;
13805;SDS011;6974;53.606;9.872;2024-01-11T08:11:18;24.37;;;11.40;;
13805;SDS011;6974;53.606;9.872;2024-01-11T08:13:45;26.07;;;11.47;;
13805;SDS011;6974;53.606;9.872;2024-01-11T08:16:15;25.07;;;11.73;;
13805;SDS011;6974;53.606;9.872;2024-01-11T08:18:42;25.17;;;11.60;;
13805;SDS011;6974;53.606;9.872;2024-01-11T08:21:10;27.57;;;14.60;;
13805;SDS011;6974;53.606;9.872;2024-01-11T08:23:39;35.53;;;18.10;;
13805;SDS011;6974;53.606;9.872;2024-01-11T08:26:10;30.03;;;13.03;;
13805;SDS011;6974;53.606;9.872;2024-01-11T08:28:38;28.03;;;14.77;;
13805;SDS011;6974;53.606;9.872;2024-01-11T08:31:05;26.27;;;13.13;;
13805;SDS011;6974;53.606;9.872;2024-01-11T08:33:32;25.80;;;14.50;;
13805;SDS011;6974;53.606;9.872;2024-01-11T08:35:59;32.60;;;13.97;;
13805;SDS011;6974;53.606;9.872;2024-01-11T08:38:28;30.00;;;14.40;;
13805;SDS011;6974;53.606;9.872;2024-01-11T08:40:55;29.03;;;13.20;;
13805;SDS011;6974;53.606;9.872;2024-01-11T08:43:25;29.10;;;14.47;;
13805;SDS011;6974;53.606;9.872;2024-01-11T08:45:52;27.87;;;13.70;;
13805;SDS011;6974;53.606;9.872;2024-01-11T08:48:19;27.93;;;13.40;;
13805;SDS011;6974;53.606;9.872;2024-01-11T08:50:46;25.90;;;13.53;;
13805;SDS011;6974;53.606;9.872;2024-01-11T08:53:13;29.83;;;12.97;;
13805;SDS011;6974;53.606;9.872;2024-01-11T08:55:40;29.10;;;12.87;;
13805;SDS011;6974;53.606;9.872;2024-01-11T08:58:08;23.53;;;11.67;;
13805;SDS011;6974;53.606;9.872;2024-01-11T09:00:36;24.03;;;11.30;;
13805;SDS011;6974;53.606;9.872;2024-01-11T09:03:04;19.50;;;10.13;;
13805;SDS011;6974;53.606;9.872;2024-01-11T09:05:30;18.07;;;9.40;;
13805;SDS011;6974;53.606;9.872;2024-01-11T09:07:58;15.53;;;8.13;;
13805;SDS011;6974;53.606;9.872;2024-01-11T09:10:24;14.80;;;7.97;;
13805;SDS011;6974;53.606;9.872;2024-01-11T09:12:52;18.47;;;8.40;;
13805;SDS011;6974;53.606;9.872;2024-01-11T09:15:19;14.77;;;7.23;;
13805;SDS011;6974;53.606;9.872;2024-01-11T09:17:47;14.80;;;7.43;;
13805;SDS011;6974;53.606;9.872;2024-01-11T09:20:15;20.67;;;8.87;;
13805;SDS011;6974;53.606;9.872;2024-01-11T09:22:43;14.27;;;7.50;;
13805;SDS011;6974;53.606;9.872;2024-01-11T09:25:11;18.23;;;9.10;;
13805;SDS011;6974;53.606;9.872;2024-01-11T09:27:38;18.90;;;8.50;;
13805;SDS011;6974;53.606;9.872;2024-01-11T09:30:05;17.60;;;9.33;;
13805;SDS011;6974;53.606;9.872;2024-01-11T09:32:33;17.27;;;9.07;;
13805;SDS011;6974;53.606;9.872;2024-01-11T09:35:02;19.40;;;9.73;;
13805;SDS011;6974;53.606;9.872;2024-01-11T09:37:30;17.40;;;9.17;;
13805;SDS011;6974;53.606;9.872;2024-01-11T09:39:57;24.43;;;10.37;;
13805;SDS011;6974;53.606;9.872;2024-01-11T09:42:24;20.90;;;9.83;;
13805;SDS011;6974;53.606;9.872;2024-01-11T09:44:51;20.93;;;10.50;;
13805;SDS011;6974;53.606;9.872;2024-01-11T09:47:20;25.47;;;10.93;;
13805;SDS011;6974;53.606;9.872;2024-01-11T09:49:48;21.67;;;10.87;;
13805;SDS011;6974;53.606;9.872;2024-01-11T09:52:18;21.60;;;10.80;;
13805;SDS011;6974;53.606;9.872;2024-01-11T09:54:46;17.53;;;10.20;;
13805;SDS011;6974;53.606;9.872;2024-01-11T09:57:14;26.10;;;11.77;;
13805;SDS011;6974;53.606;9.872;2024-01-11T09:59:43;17.97;;;10.40;;
13805;SDS011;6974;53.606;9.872;2024-01-11T10:02:10;18.47;;;10.30;;
13805;SDS011;6974;53.606;9.872;2024-01-11T10:04:38;18.47;;;10.50;;
13805;SDS011;6974;53.606;9.872;2024-01-11T10:07:07;20.87;;;10.23;;
13805;SDS011;6974;53.606;9.872;2024-01-11T10:09:36;19.93;;;10.50;;
13805;SDS011;6974;53.606;9.872;2024-01-11T10:12:03;22.23;;;11.53;;
13805;SDS011;6974;53.606;9.872;2024-01-11T10:14:30;19.83;;;11.63;;
13805;SDS011;6974;53.606;9.872;2024-01-11T10:16:57;23.37;;;12.23;;
13805;SDS011;6974;53.606;9.872;2024-01-11T10:19:25;22.97;;;12.63;;
13805;SDS011;6974;53.606;9.872;2024-01-11T10:21:52;23.93;;;11.80;;
13805;SDS011;6974;53.606;9.872;2024-01-11T10:24:19;25.30;;;14.83;;
13805;SDS011;6974;53.606;9.872;2024-01-11T10:26:49;24.93;;;13.87;;
13805;SDS011;6974;53.606;9.872;2024-01-11T10:29:16;28.73;;;14.80;;
13805;SDS011;6974;53.606;9.872;2024-01-11T10:31:43;23.00;;;12.93;;
13805;SDS011;6974;53.606;9.872;2024-01-11T10:34:10;27.57;;;14.73;;
13805;SDS011;6974;53.606;9.872;2024-01-11T10:36:36;30.27;;;15.97;;
13805;SDS011;6974;53.606;9.872;2024-01-11T10:39:03;32.23;;;16.47;;
13805;SDS011;6974;53.606;9.872;2024-01-11T10:41:32;27.67;;;16.90;;
13805;SDS011;6974;53.606;9.872;2024-01-11T10:44:07;30.83;;;16.40;;
13805;SDS011;6974;53.606;9.872;2024-01-11T10:46:42;34.10;;;17.50;;
13805;SDS011;6974;53.606;9.872;2024-01-11T10:49:11;30.93;;;17.20;;
13805;SDS011;6974;53.606;9.872;2024-01-11T10:51:43;32.87;;;17.60;;
13805;SDS011;6974;53.606;9.872;2024-01-11T10:54:16;32.63;;;17.40;;
13805;SDS011;6974;53.606;9.872;2024-01-11T10:56:44;35.60;;;18.53;;
13805;SDS011;6974;53.606;9.872;2024-01-11T10:59:14;34.43;;;18.50;;
13805;SDS011;6974;53.606;9.872;2024-01-11T11:01:42;37.33;;;18.53;;
13805;SDS011;6974;53.606;9.872;2024-01-11T11:04:10;35.47;;;18.63;;
13805;SDS011;6974;53.606;9.872;2024-01-11T11:06:38;40.47;;;20.57;;
13805;SDS011;6974;53.606;9.872;2024-01-11T11:09:07;34.83;;;18.43;;
13805;SDS011;6974;53.606;9.872;2024-01-11T11:11:34;37.03;;;19.20;;
13805;SDS011;6974;53.606;9.872;2024-01-11T11:14:02;38.13;;;19.83;;
13805;SDS011;6974;53.606;9.872;2024-01-11T11:16:33;38.73;;;19.80;;
13805;SDS011;6974;53.606;9.872;2024-01-11T11:19:00;33.60;;;16.97;;
13805;SDS011;6974;53.606;9.872;2024-01-11T11:21:27;35.57;;;19.10;;
13805;SDS011;6974;53.606;9.872;2024-01-11T11:23:54;38.77;;;17.90;;
13805;SDS011;6974;53.606;9.872;2024-01-11T11:26:22;35.47;;;19.90;;
13805;SDS011;6974;53.606;9.872;2024-01-11T11:28:52;40.93;;;18.93;;
13805;SDS011;6974;53.606;9.872;2024-01-11T11:34:15;40.37;;;20.23;;
13805;SDS011;6974;53.606;9.872;2024-01-11T11:36:46;37.40;;;18.77;;
13805;SDS011;6974;53.606;9.872;2024-01-11T11:39:15;37.73;;;20.20;;
13805;SDS011;6974;53.606;9.872;2024-01-11T11:41:44;37.37;;;19.93;;
13805;SDS011;6974;53.606;9.872;2024-01-11T11:44:15;34.77;;;19.37;;
13805;SDS011;6974;53.606;9.872;2024-01-11T11:46:43;36.17;;;19.20;;
13805;SDS011;6974;53.606;9.872;2024-01-11T11:49:13;38.80;;;20.70;;
13805;SDS011;6974;53.606;9.872;2024-01-11T11:51:42;35.13;;;18.97;;
13805;SDS011;6974;53.606;9.872;2024-01-11T11:54:09;37.37;;;19.53;;
13805;SDS011;6974;53.606;9.872;2024-01-11T11:56:42;42.70;;;20.50;;
13805;SDS011;6974;53.606;9.872;2024-01-11T11:59:10;43.13;;;22.47;;
13805;SDS011;6974;53.606;9.872;2024-01-11T12:01:37;35.97;;;20.00;;
13805;SDS011;6974;53.606;9.872;2024-01-11T12:04:05;39.13;;;20.83;;
13805;SDS011;6974;53.606;9.872;2024-01-11T12:06:35;35.97;;;20.23;;
13805;SDS011;6974;53.606;9.872;2024-01-11T12:09:04;39.63;;;20.70;;
13805;SDS011;6974;53.606;9.872;2024-01-11T12:11:31;35.40;;;18.57;;
13805;SDS011;6974;53.606;9.872;2024-01-11T12:13:58;39.30;;;20.53;;
13805;SDS011;6974;53.606;9.872;2024-01-11T12:16:25;35.90;;;20.13;;
13805;SDS011;6974;53.606;9.872;2024-01-11T12:18:53;33.70;;;20.47;;
13805;SDS011;6974;53.606;9.872;2024-01-11T12:21:20;38.30;;;20.10;;
13805;SDS011;6974;53.606;9.872;2024-01-11T12:23:48;40.30;;;21.30;;
13805;SDS011;6974;53.606;9.872;2024-01-11T12:26:20;35.20;;;19.77;;
13805;SDS011;6974;53.606;9.872;2024-01-11T12:28:48;34.77;;;19.07;;
13805;SDS011;6974;53.606;9.872;2024-01-11T12:31:16;40.40;;;21.27;;
13805;SDS011;6974;53.606;9.872;2024-01-11T12:33:44;38.63;;;21.17;;
13805;SDS011;6974;53.606;9.872;2024-01-11T12:36:12;38.73;;;20.30;;
13805;SDS011;6974;53.606;9.872;2024-01-11T12:38:45;38.80;;;21.07;;
13805;SDS011;6974;53.606;9.872;2024-01-11T12:41:13;34.17;;;19.77;;
13805;SDS011;6974;53.606;9.872;2024-01-11T12:43:43;39.00;;;20.77;;
13805;SDS011;6974;53.606;9.872;2024-01-11T12:46:10;38.07;;;21.10;;
13805;SDS011;6974;53.606;9.872;2024-01-11T12:48:38;39.13;;;20.47;;
13805;SDS011;6974;53.606;9.872;2024-01-11T12:51:05;34.77;;;19.83;;
13805;SDS011;6974;53.606;9.872;2024-01-11T12:53:32;35.60;;;20.40;;
13805;SDS011;6974;53.606;9.872;2024-01-11T12:56:02;34.20;;;18.87;;
13805;SDS011;6974;53.606;9.872;2024-01-11T12:58:34;36.40;;;20.17;;
13805;SDS011;6974;53.606;9.872;2024-01-11T13:01:01;36.87;;;18.73;;
13805;SDS011;6974;53.606;9.872;2024-01-11T13:03:29;35.53;;;19.03;;
13805;SDS011;6974;53.606;9.872;2024-01-11T13:05:57;33.50;;;18.93;;
13805;SDS011;6974;53.606;9.872;2024-01-11T13:08:24;35.93;;;19.33;;
13805;SDS011;6974;53.606;9.872;2024-01-11T13:10:52;36.50;;;19.03;;
13805;SDS011;6974;53.606;9.872;2024-01-11T13:13:20;35.53;;;19.90;;
13805;SDS011;6974;53.606;9.872;2024-01-11T13:15:49;35.87;;;18.77;;
13805;SDS011;6974;53.606;9.872;2024-01-11T13:18:17;34.40;;;19.07;;
13805;SDS011;6974;53.606;9.872;2024-01-11T13:20:44;35.60;;;18.33;;
13805;SDS011;6974;53.606;9.872;2024-01-11T13:23:13;37.27;;;19.57;;
13805;SDS011;6974;53.606;9.872;2024-01-11T13:25:41;32.63;;;17.73;;
13805;SDS011;6974;53.606;9.872;2024-01-11T13:28:11;38.93;;;18.40;;
13805;SDS011;6974;53.606;9.872;2024-01-11T13:30:38;40.03;;;19.87;;
13805;SDS011;6974;53.606;9.872;2024-01-11T13:33:07;35.93;;;18.87;;
13805;SDS011;6974;53.606;9.872;2024-01-11T13:35:35;33.17;;;19.97;;
13805;SDS011;6974;53.606;9.872;2024-01-11T13:38:04;34.77;;;18.27;;
13805;SDS011;6974;53.606;9.872;2024-01-11T13:40:31;31.07;;;16.87;;
13805;SDS011;6974;53.606;9.872;2024-01-11T13:42:59;33.53;;;17.90;;
13805;SDS011;6974;53.606;9.872;2024-01-11T13:45:26;36.03;;;19.33;;
13805;SDS011;6974;53.606;9.872;2024-01-11T13:47:56;36.50;;;19.27;;
13805;SDS011;6974;53.606;9.872;2024-01-11T13:50:25;36.37;;;19.20;;
13805;SDS011;6974;53.606;9.872;2024-01-11T13:52:52;38.73;;;19.50;;
13805;SDS011;6974;53.606;9.872;2024-01-11T13:55:21;31.97;;;17.90;;
13805;SDS011;6974;53.606;9.872;2024-01-11T13:57:48;37.23;;;19.33;;
13805;SDS011;6974;53.606;9.872;2024-01-11T14:00:16;35.07;;;19.63;;
13805;SDS011;6974;53.606;9.872;2024-01-11T14:02:44;34.97;;;18.30;;
13805;SDS011;6974;53.606;9.872;2024-01-11T14:05:11;35.00;;;19.20;;
13805;SDS011;6974;53.606;9.872;2024-01-11T14:07:41;49.33;;;33.23;;
13805;SDS011;6974;53.606;9.872;2024-01-11T14:10:10;42.97;;;28.27;;
13805;SDS011;6974;53.606;9.872;2024-01-11T14:12:38;37.77;;;23.63;;
13805;SDS011;6974;53.606;9.872;2024-01-11T14:15:06;35.70;;;20.13;;
13805;SDS011;6974;53.606;9.872;2024-01-11T14:17:36;35.40;;;21.17;;
13805;SDS011;6974;53.606;9.872;2024-01-11T14:20:05;32.43;;;18.63;;
13805;SDS011;6974;53.606;9.872;2024-01-11T14:22:37;32.47;;;17.77;;
13805;SDS011;6974;53.606;9.872;2024-01-11T14:25:06;36.43;;;19.70;;
13805;SDS011;6974;53.606;9.872;2024-01-11T14:27:34;32.77;;;17.57;;
13805;SDS011;6974;53.606;9.872;2024-01-11T14:30:01;31.60;;;17.50;;
13805;SDS011;6974;53.606;9.872;2024-01-11T14:32:30;35.40;;;18.77;;
13805;SDS011;6974;53.606;9.872;2024-01-11T14:34:57;34.33;;;17.47;;
13805;SDS011;6974;53.606;9.872;2024-01-11T14:37:28;33.53;;;17.30;;
13805;SDS011;6974;53.606;9.872;2024-01-11T14:39:55;37.20;;;21.73;;
13805;SDS011;6974;53.606;9.872;2024-01-11T14:42:27;36.57;;;20.57;;